Time;durP1;ratioP1;P1;durP2;ratioP2;P2;SDS_P1;SDS_P2;PMS_P1;PMS_P2;Temp;Humidity;BMP_temperature;BMP_pressure;BME280_temperature;BME280_humidity;BME280_pressure;Samples;Min_cycle;Max_cycle;Signal;HPM_P1;HPM_P2
2023/08/25 00:00:30;;;;;;;0.10;0.10;;;20.70;99.90;;;;;;5032561;28;20045;-76
2023/08/25 00:02:56;;;;;;;0.20;0.20;;;20.70;99.90;;;;;;5030904;28;20098;-76
2023/08/25 00:05:22;;;;;;;0.20;0.20;;;20.70;99.90;;;;;;5051643;28;20071;-77
2023/08/25 00:07:48;;;;;;;0.20;0.20;;;20.70;99.90;;;;;;5035502;28;20037;-77
2023/08/25 00:10:14;;;;;;;0.20;0.20;;;20.70;99.90;;;;;;5032416;28;20048;-78
2023/08/25 00:12:40;;;;;;;0.10;0.10;;;20.70;99.90;;;;;;5046591;28;20048;-77
2023/08/25 00:15:07;;;;;;;0.20;0.20;;;20.60;99.90;;;;;;5030232;28;20040;-78
2023/08/25 00:17:33;;;;;;;0.20;0.20;;;20.70;99.90;;;;;;5031347;28;20049;-78
2023/08/25 00:19:59;;;;;;;0.20;0.20;;;20.60;99.90;;;;;;5021258;28;20792;-77
2023/08/25 00:22:25;;;;;;;0.20;0.20;;;20.60;99.90;;;;;;5044115;28;20076;-78
2023/08/25 00:24:52;;;;;;;0.20;0.20;;;20.60;99.90;;;;;;5049037;28;20053;-78
2023/08/25 00:27:19;;;;;;;0.10;0.10;;;20.60;99.90;;;;;;5031468;28;20523;-77
2023/08/25 00:29:44;;;;;;;0.20;0.20;;;20.50;99.90;;;;;;5046730;28;20068;-78
2023/08/25 00:32:10;;;;;;;0.10;0.10;;;20.50;99.90;;;;;;5030627;28;20492;-78
2023/08/25 00:34:36;;;;;;;0.10;0.10;;;20.50;99.90;;;;;;5032886;28;20040;-77
2023/08/25 00:37:02;;;;;;;0.20;0.20;;;20.50;99.90;;;;;;5031402;28;20048;-77
2023/08/25 00:39:27;;;;;;;0.20;0.20;;;20.50;99.90;;;;;;5029481;28;20049;-78
2023/08/25 00:41:54;;;;;;;0.10;0.10;;;20.50;99.90;;;;;;5031244;28;20116;-77
2023/08/25 00:44:20;;;;;;;0.20;0.20;;;20.40;99.90;;;;;;5047567;28;20037;-77
2023/08/25 00:46:46;;;;;;;0.20;0.20;;;20.40;99.90;;;;;;5050601;28;20493;-78
2023/08/25 00:49:13;;;;;;;0.20;0.20;;;20.40;99.90;;;;;;5027636;28;20053;-77
2023/08/25 00:51:39;;;;;;;0.20;0.20;;;20.40;99.90;;;;;;5049584;28;20091;-77
2023/08/25 00:54:07;;;;;;;0.10;0.10;;;20.40;99.90;;;;;;5049530;28;20045;-77
2023/08/25 00:56:34;;;;;;;0.10;0.10;;;20.40;99.90;;;;;;5030836;28;20425;-78
2023/08/25 00:59:01;;;;;;;0.10;0.10;;;20.40;99.90;;;;;;5030967;28;20095;-77
2023/08/25 01:01:27;;;;;;;0.10;0.10;;;20.40;99.90;;;;;;5029645;28;20044;-78
2023/08/25 01:03:53;;;;;;;0.10;0.10;;;20.40;99.90;;;;;;5047457;28;20056;-77
2023/08/25 01:06:19;;;;;;;0.15;0.15;;;20.30;99.90;;;;;;5029882;28;20053;-77
2023/08/25 01:08:45;;;;;;;0.15;0.15;;;20.40;99.90;;;;;;5032246;28;20607;-78
2023/08/25 01:11:20;;;;;;;0.20;0.20;;;20.40;99.90;;;;;;5029437;28;20045;-77
2023/08/25 01:13:51;;;;;;;0.20;0.20;;;20.40;99.90;;;;;;5028032;28;20036;-77
2023/08/25 01:16:21;;;;;;;0.20;0.20;;;20.30;99.90;;;;;;5024241;28;20048;-77
2023/08/25 01:18:46;;;;;;;0.10;0.10;;;20.30;99.90;;;;;;5041165;28;20124;-78
2023/08/25 01:21:14;;;;;;;0.20;0.20;;;20.40;99.90;;;;;;5030418;28;20605;-77
2023/08/25 01:23:57;;;;;;;0.20;0.20;;;20.40;99.90;;;;;;5031872;28;20049;-78
2023/08/25 01:26:24;;;;;;;0.10;0.10;;;20.40;99.90;;;;;;5039138;28;20052;-78
2023/08/25 01:28:53;;;;;;;0.20;0.20;;;20.40;99.90;;;;;;5037833;28;20064;-77
2023/08/25 01:31:21;;;;;;;0.20;0.20;;;20.40;99.90;;;;;;5048432;28;20405;-78
2023/08/25 01:33:48;;;;;;;0.20;0.20;;;20.40;99.90;;;;;;5050766;28;20098;-78
2023/08/25 01:36:18;;;;;;;0.20;0.20;;;20.40;99.90;;;;;;5050564;28;20036;-78
2023/08/25 01:39:04;;;;;;;0.20;0.20;;;20.40;99.90;;;;;;5049084;28;20103;-78
2023/08/25 01:41:52;;;;;;;0.10;0.10;;;20.40;99.90;;;;;;5024821;28;20153;-78
2023/08/25 01:44:19;;;;;;;0.20;0.20;;;20.40;99.90;;;;;;5045512;28;20067;-78
2023/08/25 01:46:50;;;;;;;0.20;0.20;;;20.40;99.90;;;;;;5026880;28;20095;-78
2023/08/25 01:49:17;;;;;;;0.20;0.20;;;20.40;99.90;;;;;;5023232;28;20064;-78
2023/08/25 01:51:43;;;;;;;0.20;0.20;;;20.40;99.90;;;;;;5047532;28;20037;-77
2023/08/25 01:54:10;;;;;;;0.20;0.20;;;20.30;99.90;;;;;;5048735;28;20041;-78
2023/08/25 01:56:35;;;;;;;0.17;0.17;;;20.40;99.90;;;;;;5030018;28;20065;-78
2023/08/25 01:59:01;;;;;;;0.20;0.20;;;20.30;99.90;;;;;;5046582;28;20466;-77
2023/08/25 02:01:28;;;;;;;0.10;0.10;;;20.30;99.90;;;;;;5028634;28;20033;-78
2023/08/25 02:03:54;;;;;;;0.20;0.20;;;20.30;99.90;;;;;;5031519;28;20056;-78
2023/08/25 02:06:20;;;;;;;0.20;0.20;;;20.30;99.90;;;;;;5031672;28;20139;-78
2023/08/25 02:08:46;;;;;;;0.10;0.10;;;20.30;99.90;;;;;;5030853;28;20049;-78
2023/08/25 02:11:11;;;;;;;0.20;0.20;;;20.30;99.90;;;;;;5011757;28;20043;-78
2023/08/25 02:13:37;;;;;;;0.17;0.17;;;20.20;99.90;;;;;;5018176;28;20037;-78
2023/08/25 02:16:03;;;;;;;0.20;0.20;;;20.20;99.90;;;;;;5029833;28;20111;-78
2023/08/25 02:18:28;;;;;;;0.10;0.10;;;20.20;99.90;;;;;;5030053;28;20045;-78
2023/08/25 02:20:58;;;;;;;0.20;0.20;;;20.20;99.90;;;;;;5043585;28;20430;-77
2023/08/25 02:23:24;;;;;;;0.17;0.17;;;20.10;99.90;;;;;;5041631;28;20037;-78
2023/08/25 02:25:51;;;;;;;0.20;0.20;;;20.10;99.90;;;;;;5026750;28;20063;-78
2023/08/25 02:28:16;;;;;;;0.20;0.20;;;20.10;99.90;;;;;;5034492;28;20072;-78
2023/08/25 02:30:42;;;;;;;0.20;0.20;;;20.10;99.90;;;;;;5031330;28;20388;-78
2023/08/25 02:33:07;;;;;;;0.20;0.20;;;20.10;99.90;;;;;;5048653;28;20048;-78
2023/08/25 02:35:33;;;;;;;0.10;0.10;;;20.10;99.90;;;;;;5047793;28;20041;-78
2023/08/25 02:38:07;;;;;;;0.20;0.20;;;20.00;99.90;;;;;;5028161;28;20075;-77
2023/08/25 02:40:33;;;;;;;0.20;0.20;;;20.00;99.90;;;;;;5029209;28;20060;-77
2023/08/25 02:43:02;;;;;;;0.15;0.15;;;20.00;99.90;;;;;;5030109;28;20043;-78
2023/08/25 02:45:28;;;;;;;0.20;0.20;;;20.00;99.90;;;;;;5049379;28;20548;-77
2023/08/25 02:47:54;;;;;;;0.20;0.20;;;20.00;99.90;;;;;;5030260;28;20128;-78
2023/08/25 02:50:20;;;;;;;0.10;0.10;;;20.00;99.90;;;;;;5027071;28;20051;-78
2023/08/25 02:52:47;;;;;;;0.15;0.15;;;20.00;99.90;;;;;;5043975;28;20067;-78
2023/08/25 02:55:18;;;;;;;0.20;0.20;;;20.10;99.90;;;;;;5047013;28;20066;-78
2023/08/25 02:57:43;;;;;;;0.20;0.20;;;20.00;99.90;;;;;;5046027;28;20045;-77
2023/08/25 03:00:11;;;;;;;0.10;0.10;;;20.00;99.90;;;;;;5027931;28;20041;-78
2023/08/25 03:02:37;;;;;;;0.20;0.20;;;20.00;99.90;;;;;;5030053;28;20052;-78
2023/08/25 03:05:04;;;;;;;0.30;0.30;;;20.00;99.90;;;;;;5031262;28;20451;-77
2023/08/25 03:07:30;;;;;;;0.17;0.17;;;20.10;99.90;;;;;;5053743;28;20041;-78
2023/08/25 03:09:55;;;;;;;0.13;0.13;;;20.10;99.90;;;;;;5031586;28;20501;-78
2023/08/25 03:12:21;;;;;;;0.13;0.13;;;20.10;99.90;;;;;;5035283;28;20044;-77
2023/08/25 03:14:47;;;;;;;0.10;0.10;;;20.10;99.90;;;;;;5035795;28;20484;-78
2023/08/25 03:17:12;;;;;;;0.20;0.20;;;20.10;99.90;;;;;;5034498;28;20151;-78
2023/08/25 03:19:38;;;;;;;0.20;0.20;;;20.10;99.90;;;;;;5034560;28;20148;-77
2023/08/25 03:22:04;;;;;;;0.20;0.20;;;20.10;99.90;;;;;;5032448;28;20143;-78
2023/08/25 03:24:30;;;;;;;0.20;0.20;;;20.10;99.90;;;;;;5032956;28;20049;-78
2023/08/25 03:26:59;;;;;;;0.13;0.13;;;20.10;99.90;;;;;;5035241;28;20401;-78
2023/08/25 03:29:25;;;;;;;0.20;0.20;;;20.10;99.90;;;;;;5034761;28;20139;-78
2023/08/25 03:31:51;;;;;;;0.15;0.15;;;20.10;99.90;;;;;;5049532;28;20215;-77
2023/08/25 03:34:17;;;;;;;0.15;0.15;;;20.10;99.90;;;;;;5034164;28;20055;-78
2023/08/25 03:36:42;;;;;;;0.10;0.10;;;20.10;99.90;;;;;;5053533;28;20045;-78
2023/08/25 03:39:09;;;;;;;0.20;0.20;;;20.10;99.90;;;;;;5029885;28;20052;-77
2023/08/25 03:41:35;;;;;;;0.20;0.20;;;20.10;99.90;;;;;;5034523;28;20068;-77
2023/08/25 03:44:01;;;;;;;0.20;0.20;;;20.20;99.90;;;;;;5033784;28;20445;-77
2023/08/25 03:46:27;;;;;;;0.10;0.10;;;20.20;99.90;;;;;;5045120;28;20120;-77
2023/08/25 03:48:53;;;;;;;0.20;0.20;;;20.20;99.90;;;;;;5031611;28;20155;-77
2023/08/25 03:51:19;;;;;;;0.20;0.20;;;20.10;99.90;;;;;;5029090;28;20120;-78
2023/08/25 03:53:44;;;;;;;0.20;0.20;;;20.10;99.90;;;;;;5046853;28;20623;-77
2023/08/25 03:56:10;;;;;;;0.20;0.20;;;20.10;99.90;;;;;;5048058;28;20116;-77
2023/08/25 03:58:36;;;;;;;0.20;0.20;;;20.10;99.90;;;;;;5031415;28;20045;-78
2023/08/25 04:01:03;;;;;;;0.10;0.10;;;20.10;99.90;;;;;;5030189;28;20107;-77
2023/08/25 04:03:28;;;;;;;0.20;0.20;;;20.10;99.90;;;;;;5050577;28;20107;-77
2023/08/25 04:05:54;;;;;;;0.17;0.17;;;20.10;99.90;;;;;;5030257;28;20053;-78
2023/08/25 04:08:20;;;;;;;0.13;0.13;;;20.10;99.90;;;;;;5049112;28;20076;-77
2023/08/25 04:10:47;;;;;;;0.17;0.17;;;20.10;99.90;;;;;;5032311;28;20045;-77
2023/08/25 04:13:13;;;;;;;0.20;0.20;;;20.10;99.90;;;;;;5033697;28;20392;-77
2023/08/25 04:15:39;;;;;;;0.10;0.10;;;20.10;99.90;;;;;;5033743;28;20041;-77
2023/08/25 04:18:05;;;;;;;0.20;0.20;;;20.10;99.90;;;;;;5033293;28;20040;-77
2023/08/25 04:20:31;;;;;;;0.17;0.17;;;20.10;99.90;;;;;;5028834;28;20087;-77
2023/08/25 04:23:03;;;;;;;0.20;0.20;;;20.10;99.90;;;;;;5033018;28;20408;-77
2023/08/25 04:25:29;;;;;;;;;;;20.10;99.90;;;;;;5030806;28;20055;-77
2023/08/25 04:27:56;;;;;;;0.20;0.20;;;20.10;99.90;;;;;;5047912;28;20295;-77
2023/08/25 04:30:22;;;;;;;0.20;0.20;;;20.00;99.90;;;;;;5031007;28;20047;-77
2023/08/25 04:32:52;;;;;;;0.10;0.10;;;20.00;99.90;;;;;;5033535;28;20099;-78
2023/08/25 04:35:18;;;;;;;0.20;0.20;;;20.00;99.90;;;;;;5029694;28;20060;-77
2023/08/25 04:37:47;;;;;;;0.20;0.20;;;20.00;99.90;;;;;;5029105;28;20041;-77
2023/08/25 04:40:14;;;;;;;0.10;0.10;;;20.00;99.90;;;;;;5029545;28;20052;-77
2023/08/25 04:42:41;;;;;;;0.20;0.20;;;20.00;99.90;;;;;;5044880;28;20091;-77
2023/08/25 04:45:09;;;;;;;0.20;0.20;;;20.00;99.90;;;;;;5025848;28;20133;-76
2023/08/25 04:47:35;;;;;;;0.10;0.10;;;20.00;99.90;;;;;;5025951;28;20098;-76
2023/08/25 04:50:03;;;;;;;0.20;0.20;;;20.00;99.90;;;;;;5029512;28;20041;-78
2023/08/25 04:52:33;;;;;;;0.20;0.20;;;20.00;99.90;;;;;;5030962;28;20052;-76
2023/08/25 04:54:59;;;;;;;0.20;0.20;;;20.00;99.90;;;;;;5050123;28;20091;-76
2023/08/25 04:57:24;;;;;;;0.20;0.20;;;20.10;99.90;;;;;;5031671;28;20396;-75
2023/08/25 04:59:50;;;;;;;0.20;0.20;;;20.10;99.90;;;;;;5030396;28;20045;-76
2023/08/25 05:02:17;;;;;;;0.10;0.10;;;20.10;99.90;;;;;;5026928;28;20056;-76
2023/08/25 05:04:43;;;;;;;0.10;0.10;;;20.10;99.90;;;;;;5019239;28;20190;-76
2023/08/25 05:07:09;;;;;;;0.20;0.20;;;20.10;99.90;;;;;;5029241;28;20052;-77
2023/08/25 05:09:35;;;;;;;0.15;0.15;;;20.10;99.90;;;;;;5026248;28;20457;-76
2023/08/25 05:12:00;;;;;;;0.20;0.20;;;20.10;99.90;;;;;;5030625;28;20099;-76
2023/08/25 05:14:26;;;;;;;0.20;0.20;;;20.10;99.90;;;;;;5031414;28;20060;-77
2023/08/25 05:16:51;;;;;;;0.20;0.20;;;20.20;99.90;;;;;;5032846;28;20079;-76
2023/08/25 05:19:17;;;;;;;0.20;0.20;;;20.10;99.90;;;;;;5031095;28;20033;-76
2023/08/25 05:21:43;;;;;;;0.20;0.20;;;20.10;99.90;;;;;;5029584;28;20436;-76
2023/08/25 05:24:23;;;;;;;0.15;0.15;;;20.20;99.90;;;;;;5028827;28;20503;-76
2023/08/25 05:26:52;;;;;;;0.17;0.17;;;20.20;99.90;;;;;;5043032;28;20095;-76
2023/08/25 05:29:22;;;;;;;0.20;0.20;;;20.20;99.90;;;;;;5043688;28;20033;-76
2023/08/25 05:31:48;;;;;;;0.10;0.10;;;20.20;99.90;;;;;;5047135;28;20052;-76
2023/08/25 05:34:15;;;;;;;0.20;0.20;;;20.20;99.90;;;;;;5030713;28;20076;-76
2023/08/25 05:36:41;;;;;;;0.10;0.10;;;20.20;99.90;;;;;;5049912;28;20064;-76
2023/08/25 05:39:06;;;;;;;0.30;0.20;;;20.20;99.90;;;;;;5030762;28;20079;-77
2023/08/25 05:41:32;;;;;;;0.20;0.20;;;20.20;99.90;;;;;;5048613;28;20090;-75
2023/08/25 05:43:58;;;;;;;0.15;0.15;;;20.20;99.90;;;;;;5046522;28;20040;-75
2023/08/25 05:46:24;;;;;;;0.20;0.20;;;20.20;99.90;;;;;;5045627;28;20501;-76
2023/08/25 05:48:50;;;;;;;0.20;0.20;;;20.30;99.90;;;;;;5047700;28;20049;-77
2023/08/25 05:51:16;;;;;;;0.20;0.20;;;20.30;99.90;;;;;;5046360;28;20125;-76
2023/08/25 05:53:41;;;;;;;0.17;0.17;;;20.30;99.90;;;;;;5022499;28;20083;-75
2023/08/25 05:56:07;;;;;;;0.10;0.10;;;20.30;99.90;;;;;;5049897;28;20049;-76
2023/08/25 05:58:33;;;;;;;0.20;0.20;;;20.30;99.90;;;;;;5050024;28;20392;-77
2023/08/25 06:00:58;;;;;;;0.20;0.20;;;20.30;99.90;;;;;;5028077;28;20134;-76
2023/08/25 06:03:25;;;;;;;0.30;0.30;;;20.30;99.90;;;;;;5026131;28;20057;-76
2023/08/25 06:05:53;;;;;;;0.20;0.20;;;20.30;99.90;;;;;;5027874;28;20079;-77
2023/08/25 06:08:22;;;;;;;0.20;0.20;;;20.30;99.90;;;;;;5025811;28;20045;-76
2023/08/25 06:10:52;;;;;;;0.20;0.20;;;20.30;99.90;;;;;;5027662;28;20088;-77
2023/08/25 06:13:18;;;;;;;0.20;0.20;;;20.30;99.90;;;;;;5023511;28;20305;-76
2023/08/25 06:15:44;;;;;;;0.20;0.20;;;20.40;99.90;;;;;;5026068;28;20167;-76
2023/08/25 06:18:09;;;;;;;0.20;0.20;;;20.40;99.90;;;;;;5029110;28;20053;-77
2023/08/25 06:20:35;;;;;;;0.20;0.20;;;20.40;99.90;;;;;;5026766;28;20504;-78
2023/08/25 06:23:01;;;;;;;0.52;0.52;;;20.40;99.90;;;;;;5024765;28;20056;-78
2023/08/25 06:25:27;;;;;;;0.20;0.20;;;20.40;99.90;;;;;;5026930;28;20535;-77
2023/08/25 06:27:53;;;;;;;0.20;0.20;;;20.40;99.90;;;;;;5026887;28;20040;-77
2023/08/25 06:30:18;;;;;;;0.20;0.20;;;20.40;99.90;;;;;;5025149;28;20132;-77
2023/08/25 06:32:44;;;;;;;0.20;0.20;;;20.40;99.90;;;;;;5027445;28;20128;-77
2023/08/25 06:35:14;;;;;;;0.20;0.20;;;20.40;99.90;;;;;;5028609;28;20488;-76
2023/08/25 06:37:39;;;;;;;0.20;0.20;;;20.40;99.90;;;;;;5029691;28;20087;-77
2023/08/25 06:40:07;;;;;;;0.10;0.10;;;20.40;99.90;;;;;;5029276;28;20469;-77
2023/08/25 06:42:34;;;;;;;0.10;0.10;;;20.50;99.90;;;;;;5028855;28;20049;-77
2023/08/25 06:45:00;;;;;;;0.20;0.20;;;20.50;99.90;;;;;;5019642;28;20053;-77
2023/08/25 06:47:27;;;;;;;0.20;0.20;;;20.50;99.90;;;;;;5022900;28;20117;-77
2023/08/25 06:49:54;;;;;;;0.20;0.20;;;20.60;99.90;;;;;;5027274;28;20056;-77
2023/08/25 06:52:21;;;;;;;0.10;0.10;;;20.60;99.90;;;;;;5026450;28;20029;-77
2023/08/25 06:54:46;;;;;;;0.10;0.10;;;20.60;99.90;;;;;;5025258;28;20579;-77
2023/08/25 06:57:12;;;;;;;0.20;0.20;;;20.60;99.90;;;;;;5024520;28;20033;-77
2023/08/25 06:59:38;;;;;;;0.17;0.17;;;20.70;99.90;;;;;;5027564;28;20045;-77
2023/08/25 07:02:04;;;;;;;0.20;0.20;;;20.70;99.90;;;;;;5027089;28;20053;-77
2023/08/25 07:04:30;;;;;;;0.20;0.20;;;20.70;99.90;;;;;;5043355;28;20566;-78
2023/08/25 07:06:55;;;;;;;0.20;0.20;;;20.70;99.90;;;;;;5048263;28;20052;-77
2023/08/25 07:09:21;;;;;;;0.20;0.20;;;20.70;99.90;;;;;;5030788;28;20049;-77
2023/08/25 07:11:47;;;;;;;0.20;0.20;;;20.70;99.90;;;;;;5031002;28;20045;-77
2023/08/25 07:14:12;;;;;;;0.10;0.10;;;20.80;99.90;;;;;;5050093;28;20045;-78
2023/08/25 07:16:38;;;;;;;0.20;0.20;;;20.80;99.90;;;;;;5044042;28;20037;-77
2023/08/25 07:19:04;;;;;;;0.10;0.10;;;20.80;99.90;;;;;;5012201;28;20064;-78
2023/08/25 07:21:30;;;;;;;0.10;0.10;;;20.80;99.90;;;;;;5029455;28;20473;-77
2023/08/25 07:23:55;;;;;;;0.10;0.10;;;20.90;99.90;;;;;;5030422;28;20072;-78
2023/08/25 07:26:22;;;;;;;0.20;0.20;;;20.90;99.90;;;;;;5030747;28;20045;-78
2023/08/25 07:28:47;;;;;;;0.20;0.20;;;20.90;99.90;;;;;;5031989;28;20545;-77
2023/08/25 07:31:13;;;;;;;0.20;0.20;;;20.90;99.90;;;;;;5024956;28;20041;-77
2023/08/25 07:33:41;;;;;;;0.10;0.10;;;21.00;99.90;;;;;;5046344;28;20041;-77
2023/08/25 07:36:06;;;;;;;0.20;0.20;;;21.00;99.90;;;;;;5029961;28;20125;-77
2023/08/25 07:38:32;;;;;;;0.20;0.20;;;20.90;99.90;;;;;;5029261;28;20040;-78
2023/08/25 07:40:58;;;;;;;0.20;0.20;;;21.10;99.90;;;;;;5029543;28;20037;-77
2023/08/25 07:43:23;;;;;;;0.20;0.20;;;21.20;99.90;;;;;;5046484;28;20041;-77
2023/08/25 07:45:49;;;;;;;0.20;0.20;;;21.20;99.90;;;;;;5044882;28;20080;-78
2023/08/25 07:48:15;;;;;;;0.20;0.20;;;21.30;99.90;;;;;;5029306;28;20534;-77
2023/08/25 07:50:40;;;;;;;0.20;0.20;;;21.20;99.90;;;;;;5025376;28;20384;-77
2023/08/25 07:53:06;;;;;;;0.20;0.20;;;21.30;99.90;;;;;;5072190;28;20126;-77
2023/08/25 07:55:32;;;;;;;0.20;0.20;;;21.30;99.90;;;;;;5047943;28;20124;-77
2023/08/25 07:57:58;;;;;;;0.20;0.20;;;21.30;99.90;;;;;;5051583;28;20041;-77
2023/08/25 08:00:26;;;;;;;0.20;0.20;;;21.40;99.90;;;;;;5023745;28;20049;-77
2023/08/25 08:02:52;;;;;;;0.20;0.20;;;21.40;99.90;;;;;;5031587;28;20510;-78
2023/08/25 08:05:18;;;;;;;0.20;0.20;;;21.40;99.90;;;;;;5051989;28;20049;-77
2023/08/25 08:07:45;;;;;;;0.13;0.13;;;21.40;99.90;;;;;;5052058;28;20103;-77
2023/08/25 08:10:12;;;;;;;0.20;0.20;;;21.40;99.90;;;;;;5030234;28;20041;-78
2023/08/25 08:12:39;;;;;;;0.20;0.20;;;21.40;99.90;;;;;;5034925;28;20048;-77
2023/08/25 08:15:06;;;;;;;0.20;0.20;;;21.40;99.90;;;;;;5032608;28;20076;-77
2023/08/25 08:17:32;;;;;;;0.20;0.20;;;21.40;99.90;;;;;;5052975;28;20427;-77
2023/08/25 08:19:58;;;;;;;0.20;0.20;;;21.40;99.90;;;;;;5033833;28;20052;-78
2023/08/25 08:22:23;;;;;;;0.20;0.20;;;21.40;99.90;;;;;;5027597;28;20037;-78
2023/08/25 08:24:50;;;;;;;0.20;0.20;;;21.40;99.90;;;;;;5030416;28;20126;-77
2023/08/25 08:27:17;;;;;;;0.20;0.20;;;21.40;99.90;;;;;;5035734;28;20401;-77
2023/08/25 08:29:44;;;;;;;0.20;0.20;;;21.40;99.90;;;;;;5049811;28;20037;-77
2023/08/25 08:32:10;;;;;;;0.20;0.20;;;21.40;99.90;;;;;;5032018;28;20041;-77
2023/08/25 08:34:36;;;;;;;0.20;0.20;;;21.40;99.90;;;;;;5050760;28;20041;-77
2023/08/25 08:37:05;;;;;;;0.20;0.20;;;21.40;99.90;;;;;;5032737;28;20037;-77
2023/08/25 08:39:34;;;;;;;0.20;0.20;;;21.40;99.90;;;;;;5027633;28;20052;-77
2023/08/25 08:42:03;;;;;;;0.50;0.50;;;21.40;99.90;;;;;;5033557;28;20041;-77
2023/08/25 08:44:36;;;;;;;0.20;0.20;;;21.40;99.90;;;;;;5033182;28;20507;-77
2023/08/25 08:47:06;;;;;;;0.20;0.20;;;21.40;99.90;;;;;;5018759;28;20118;-77
2023/08/25 08:49:33;;;;;;;0.20;0.20;;;21.50;99.90;;;;;;5033233;28;20053;-77
2023/08/25 08:52:01;;;;;;;0.15;0.15;;;21.50;99.90;;;;;;5034348;28;20049;-77
2023/08/25 08:54:28;;;;;;;0.20;0.20;;;21.50;99.90;;;;;;5032427;28;20051;-78
2023/08/25 08:56:54;;;;;;;0.20;0.20;;;21.50;99.90;;;;;;5034617;28;20048;-77
2023/08/25 08:59:20;;;;;;;0.10;0.10;;;21.60;99.90;;;;;;5033106;28;20040;-77
2023/08/25 09:01:48;;;;;;;0.10;0.10;;;21.60;99.90;;;;;;5050768;28;20460;-77
2023/08/25 09:04:20;;;;;;;0.40;0.40;;;21.60;99.90;;;;;;5031663;28;20092;-77
2023/08/25 09:06:49;;;;;;;0.17;0.17;;;21.70;99.90;;;;;;5031897;28;20187;-77
2023/08/25 09:09:18;;;;;;;0.20;0.20;;;21.80;99.90;;;;;;5049239;28;20086;-77
2023/08/25 09:11:46;;;;;;;0.20;0.20;;;21.80;99.90;;;;;;5050705;28;20068;-77
2023/08/25 09:14:13;;;;;;;0.20;0.20;;;21.80;99.90;;;;;;5050757;28;20033;-77
2023/08/25 09:16:39;;;;;;;0.20;0.20;;;21.80;99.90;;;;;;5049544;28;20072;-77
2023/08/25 09:19:05;;;;;;;0.20;0.20;;;21.90;99.90;;;;;;5044245;28;20084;-77
2023/08/25 09:21:31;;;;;;;0.20;0.20;;;21.90;99.90;;;;;;5029036;28;20118;-78
2023/08/25 09:24:00;;;;;;;0.20;0.20;;;21.90;99.90;;;;;;5044318;28;20253;-78
2023/08/25 09:26:29;;;;;;;0.38;0.20;;;21.90;99.90;;;;;;5055332;28;20036;-77
2023/08/25 09:28:58;;;;;;;0.20;0.20;;;22.00;99.90;;;;;;5030628;28;20041;-78
2023/08/25 09:31:27;;;;;;;0.20;0.20;;;22.00;99.90;;;;;;5031002;28;20558;-78
2023/08/25 09:34:00;;;;;;;0.20;0.20;;;22.00;99.90;;;;;;5035999;28;20507;-77
2023/08/25 09:36:26;;;;;;;0.10;0.10;;;22.00;99.90;;;;;;5013737;28;20063;-78
2023/08/25 09:38:52;;;;;;;0.20;0.20;;;22.00;99.90;;;;;;5041199;28;20059;-76
2023/08/25 09:41:25;;;;;;;0.20;0.20;;;22.00;99.90;;;;;;5033116;28;20094;-77
2023/08/25 09:44:01;;;;;;;0.20;0.20;;;22.10;99.90;;;;;;5049773;28;20472;-77
2023/08/25 09:46:32;;;;;;;0.10;0.10;;;22.00;99.90;;;;;;5032875;28;20470;-77
2023/08/25 09:49:07;;;;;;;0.20;0.20;;;22.10;99.90;;;;;;5048795;28;20037;-77
2023/08/25 09:51:40;;;;;;;0.17;0.17;;;22.20;99.90;;;;;;5023278;28;20184;-77
2023/08/25 09:54:12;;;;;;;0.13;0.13;;;22.30;99.90;;;;;;5028780;28;20116;-77
2023/08/25 09:56:39;;;;;;;0.20;0.20;;;22.30;99.90;;;;;;5042587;28;20047;-77
2023/08/25 09:59:07;;;;;;;0.20;0.20;;;22.40;99.90;;;;;;5032213;28;20033;-77
2023/08/25 10:01:40;;;;;;;0.20;0.20;;;22.50;99.90;;;;;;5049973;28;20045;-77
2023/08/25 10:04:09;;;;;;;0.20;0.20;;;22.60;99.90;;;;;;5031827;28;20088;-77
2023/08/25 10:06:37;;;;;;;0.20;0.20;;;22.60;99.90;;;;;;5045196;28;20042;-78
2023/08/25 10:09:04;;;;;;;0.13;0.13;;;22.70;99.90;;;;;;5030159;28;20037;-77
2023/08/25 10:11:48;;;;;;;0.17;0.17;;;22.70;99.90;;;;;;5029452;28;20049;-77
2023/08/25 10:14:14;;;;;;;0.20;0.20;;;22.80;99.90;;;;;;5028542;28;20057;-77
2023/08/25 10:16:51;;;;;;;0.20;0.20;;;22.70;99.90;;;;;;5031624;28;20096;-77
2023/08/25 10:19:24;;;;;;;0.20;0.20;;;22.70;99.90;;;;;;5030643;28;20040;-77
2023/08/25 10:21:51;;;;;;;0.20;0.20;;;22.80;99.90;;;;;;5043458;28;20057;-77
2023/08/25 10:24:22;;;;;;;0.20;0.20;;;22.70;99.90;;;;;;5031768;28;20129;-77
2023/08/25 10:26:50;;;;;;;0.10;0.10;;;22.70;99.90;;;;;;5031570;28;20056;-78
2023/08/25 10:29:18;;;;;;;0.20;0.20;;;22.60;99.90;;;;;;5031962;28;20515;-77
2023/08/25 10:31:47;;;;;;;0.20;0.20;;;22.60;99.90;;;;;;5031432;28;20303;-78
2023/08/25 10:34:42;;;;;;;0.20;0.20;;;22.60;99.90;;;;;;5017330;28;20179;-77
2023/08/25 10:37:22;;;;;;;0.13;0.13;;;22.60;99.90;;;;;;5024970;28;20392;-76
2023/08/25 10:39:56;;;;;;;0.20;0.20;;;22.60;99.90;;;;;;5029837;28;20045;-77
2023/08/25 10:42:30;;;;;;;0.10;0.10;;;22.60;99.90;;;;;;5013915;28;20915;-77
2023/08/25 10:45:01;;;;;;;0.10;0.10;;;22.50;99.90;;;;;;5048023;28;20081;-77
2023/08/25 10:47:27;;;;;;;0.10;0.10;;;22.80;99.90;;;;;;5030127;28;20136;-77
2023/08/25 10:49:55;;;;;;;0.20;0.20;;;22.40;99.90;;;;;;5031134;28;20110;-77
2023/08/25 10:52:21;;;;;;;0.20;0.20;;;22.40;99.90;;;;;;5041660;28;20040;-77
2023/08/25 10:54:49;;;;;;;0.15;0.15;;;22.30;99.90;;;;;;5030535;28;20041;-77
2023/08/25 10:57:18;;;;;;;0.10;0.10;;;22.30;99.90;;;;;;5049231;28;20159;-77
2023/08/25 10:59:50;;;;;;;0.73;0.68;;;22.30;99.90;;;;;;5043362;28;20501;-77
2023/08/25 11:02:36;;;;;;;0.10;0.10;;;22.20;99.90;;;;;;5030558;28;20049;-77
2023/08/25 11:05:34;;;;;;;0.13;0.13;;;22.20;99.90;;;;;;5025200;28;20061;-78
2023/08/25 11:08:04;;;;;;;0.20;0.20;;;22.10;99.90;;;;;;5018009;28;20383;-77
2023/08/25 11:10:34;;;;;;;0.20;0.20;;;22.00;99.90;;;;;;5029112;28;20048;-77
2023/08/25 11:13:12;;;;;;;0.20;0.20;;;22.00;99.90;;;;;;5044022;28;20302;-77
2023/08/25 11:15:38;;;;;;;0.20;0.20;;;21.90;99.90;;;;;;5027425;28;20258;-78
2023/08/25 11:18:04;;;;;;;0.20;0.20;;;21.90;99.90;;;;;;5030238;28;20041;-78
2023/08/25 11:20:29;;;;;;;0.20;0.20;;;21.80;99.90;;;;;;5026992;28;20037;-78
2023/08/25 11:22:59;;;;;;;0.10;0.10;;;21.80;99.90;;;;;;5024445;28;20044;-78
2023/08/25 11:25:25;;;;;;;0.20;0.20;;;21.80;99.90;;;;;;5031153;28;20060;-78
2023/08/25 11:27:52;;;;;;;0.10;0.10;;;21.70;99.90;;;;;;5035064;28;20044;-78
2023/08/25 11:30:18;;;;;;;0.20;0.20;;;21.70;99.90;;;;;;5034656;28;20049;-78
2023/08/25 11:32:50;;;;;;;0.13;0.13;;;21.70;99.90;;;;;;5052157;28;20072;-78
2023/08/25 11:35:17;;;;;;;0.15;0.15;;;21.70;99.90;;;;;;5034131;28;20049;-78
2023/08/25 11:37:46;;;;;;;0.17;0.17;;;21.60;99.90;;;;;;5032940;28;20044;-79
2023/08/25 11:40:18;;;;;;;0.20;0.20;;;21.60;99.90;;;;;;5034710;28;20049;-78
2023/08/25 11:42:43;;;;;;;0.20;0.20;;;21.50;99.90;;;;;;5052664;28;20081;-79
2023/08/25 11:45:12;;;;;;;0.20;0.20;;;21.50;99.90;;;;;;5031678;28;20448;-81
2023/08/25 11:47:38;;;;;;;0.20;0.20;;;21.40;99.90;;;;;;5051987;28;20043;-81
2023/08/25 11:50:05;;;;;;;0.20;0.20;;;21.40;99.90;;;;;;5032518;28;20049;-80
2023/08/25 11:52:34;;;;;;;0.20;0.20;;;21.40;99.90;;;;;;5050622;28;20103;-81
2023/08/25 11:55:00;;;;;;;0.20;0.20;;;21.40;99.90;;;;;;5034477;28;20045;-80
2023/08/25 11:57:34;;;;;;;0.15;0.15;;;21.40;99.90;;;;;;5029975;28;20029;-80
2023/08/25 12:00:05;;;;;;;0.30;0.30;;;21.40;99.90;;;;;;5031763;28;20077;-80
2023/08/25 12:02:31;;;;;;;;;;;21.50;99.90;;;;;;5040177;28;20058;-80
2023/08/25 12:05:04;;;;;;;0.20;0.20;;;21.50;99.90;;;;;;5029818;28;19955;-81
2023/08/25 12:07:31;;;;;;;0.20;0.20;;;21.50;99.90;;;;;;5034703;28;20045;-82
2023/08/25 12:10:03;;;;;;;0.10;0.10;;;21.60;99.90;;;;;;5051856;28;20049;-80
2023/08/25 12:12:31;;;;;;;0.10;0.10;;;21.60;99.90;;;;;;5034831;28;20118;-82
2023/08/25 12:14:57;;;;;;;0.20;0.20;;;21.60;99.90;;;;;;5047847;28;20075;-82
2023/08/25 12:17:27;;;;;;;0.20;0.20;;;21.60;99.90;;;;;;5047601;28;20508;-81
2023/08/25 12:19:54;;;;;;;0.13;0.13;;;21.70;99.90;;;;;;5031848;28;20049;-81
2023/08/25 12:22:20;;;;;;;0.20;0.20;;;21.70;99.90;;;;;;5022062;28;20131;-81
2023/08/25 12:24:46;;;;;;;0.10;0.10;;;21.80;99.90;;;;;;5031060;28;20563;-81
2023/08/25 12:27:12;;;;;;;0.20;0.20;;;21.80;99.90;;;;;;5031874;28;20067;-81
2023/08/25 12:29:39;;;;;;;0.10;0.10;;;21.80;99.90;;;;;;5034956;28;20052;-82
2023/08/25 12:32:07;;;;;;;0.10;0.10;;;21.80;99.90;;;;;;5050243;28;20408;-81
2023/08/25 12:34:33;;;;;;;0.20;0.20;;;21.80;99.90;;;;;;5033628;28;20053;-81
2023/08/25 12:36:59;;;;;;;0.17;0.17;;;21.90;99.90;;;;;;5033360;28;20071;-81
2023/08/25 12:39:24;;;;;;;0.10;0.10;;;21.90;99.90;;;;;;5032461;28;20511;-81
2023/08/25 12:41:50;;;;;;;0.10;0.10;;;21.90;99.90;;;;;;5050610;28;20041;-80
2023/08/25 12:44:16;;;;;;;0.20;0.20;;;21.90;99.90;;;;;;5032553;28;20052;-80
2023/08/25 12:46:42;;;;;;;0.20;0.20;;;21.90;99.90;;;;;;5031269;28;20041;-81
2023/08/25 12:49:08;;;;;;;0.20;0.20;;;22.00;99.90;;;;;;5034187;28;20048;-81